sensor_id;sensor_type;location;lat;lon;timestamp;pressure;altitude;pressure_sealevel;temperature;humidity
38452;BME280;24231;52.514;13.438;2023-04-08T00:01:56;101596.21;;;9.09;64.71
38452;BME280;24231;52.514;13.438;2023-04-08T00:04:23;101595.45;;;9.19;64.41
38452;BME280;24231;52.514;13.438;2023-04-08T00:06:50;101597.69;;;8.91;65.51
38452;BME280;24231;52.514;13.438;2023-04-08T00:09:17;101602.26;;;9.06;65.43
38452;BME280;24231;52.514;13.438;2023-04-08T00:11:44;101598.19;;;9.49;63.73
38452;BME280;24231;52.514;13.438;2023-04-08T00:14:12;101600.61;;;8.90;65.28
38452;BME280;24231;52.514;13.438;2023-04-08T00:16:39;101604.80;;;8.89;66.57
38452;BME280;24231;52.514;13.438;2023-04-08T00:19:06;101602.46;;;8.39;67.24
38452;BME280;24231;52.514;13.438;2023-04-08T00:21:32;101600.59;;;8.20;68.72
38452;BME280;24231;52.514;13.438;2023-04-08T00:23:59;101599.83;;;8.90;66.65
38452;BME280;24231;52.514;13.438;2023-04-08T00:26:26;101599.14;;;8.73;67.06
38452;BME280;24231;52.514;13.438;2023-04-08T00:28:53;101594.04;;;8.56;67.65
38452;BME280;24231;52.514;13.438;2023-04-08T00:31:21;101592.76;;;8.52;66.97
38452;BME280;24231;52.514;13.438;2023-04-08T00:33:48;101601.93;;;8.75;67.48
38452;BME280;24231;52.514;13.438;2023-04-08T00:36:16;101607.88;;;8.19;67.68
38452;BME280;24231;52.514;13.438;2023-04-08T00:38:42;101607.21;;;8.21;69.40
38452;BME280;24231;52.514;13.438;2023-04-08T00:41:10;101603.34;;;8.28;68.96
38452;BME280;24231;52.514;13.438;2023-04-08T00:43:37;101595.87;;;7.81;68.97
38452;BME280;24231;52.514;13.438;2023-04-08T00:46:04;101596.25;;;8.24;68.87
38452;BME280;24231;52.514;13.438;2023-04-08T00:48:31;101596.77;;;8.93;66.32
38452;BME280;24231;52.514;13.438;2023-04-08T00:50:59;101597.63;;;8.44;68.75
38452;BME280;24231;52.514;13.438;2023-04-08T00:53:26;101592.73;;;8.34;68.39
38452;BME280;24231;52.514;13.438;2023-04-08T00:55:53;101590.17;;;8.13;69.78
38452;BME280;24231;52.514;13.438;2023-04-08T00:58:20;101591.82;;;7.68;72.34
38452;BME280;24231;52.514;13.438;2023-04-08T01:00:51;101591.40;;;7.74;70.80
38452;BME280;24231;52.514;13.438;2023-04-08T01:03:25;101590.87;;;8.48;68.54
38452;BME280;24231;52.514;13.438;2023-04-08T01:06:02;101595.77;;;8.76;67.14
38452;BME280;24231;52.514;13.438;2023-04-08T01:08:34;101597.08;;;8.51;68.34
38452;BME280;24231;52.514;13.438;2023-04-08T01:11:05;101599.74;;;8.64;67.76
38452;BME280;24231;52.514;13.438;2023-04-08T01:13:37;101604.04;;;8.24;69.27
38452;BME280;24231;52.514;13.438;2023-04-08T01:16:08;101606.06;;;8.51;68.67
38452;BME280;24231;52.514;13.438;2023-04-08T01:18:36;101603.85;;;7.37;71.79
38452;BME280;24231;52.514;13.438;2023-04-08T01:21:05;101610.54;;;8.36;69.02
38452;BME280;24231;52.514;13.438;2023-04-08T01:23:39;101613.30;;;8.44;68.75
38452;BME280;24231;52.514;13.438;2023-04-08T01:26:10;101619.52;;;9.00;66.73
38452;BME280;24231;52.514;13.438;2023-04-08T01:28:39;101621.65;;;8.65;67.79
38452;BME280;24231;52.514;13.438;2023-04-08T01:31:07;101619.03;;;8.93;66.48
38452;BME280;24231;52.514;13.438;2023-04-08T01:33:35;101613.39;;;8.77;66.92
38452;BME280;24231;52.514;13.438;2023-04-08T01:36:03;101611.44;;;8.06;68.84
38452;BME280;24231;52.514;13.438;2023-04-08T01:38:32;101612.57;;;8.68;67.34
38452;BME280;24231;52.514;13.438;2023-04-08T01:41:00;101612.84;;;8.76;66.97
38452;BME280;24231;52.514;13.438;2023-04-08T01:43:30;101615.72;;;9.19;65.68
38452;BME280;24231;52.514;13.438;2023-04-08T01:45:59;101618.44;;;8.07;69.12
38452;BME280;24231;52.514;13.438;2023-04-08T01:48:27;101620.59;;;8.04;70.07
38452;BME280;24231;52.514;13.438;2023-04-08T01:50:56;101626.60;;;8.75;67.59
38452;BME280;24231;52.514;13.438;2023-04-08T01:53:23;101625.79;;;7.18;72.68
38452;BME280;24231;52.514;13.438;2023-04-08T01:56:00;101620.57;;;7.89;71.33
38452;BME280;24231;52.514;13.438;2023-04-08T01:58:31;101617.43;;;7.96;69.81
38452;BME280;24231;52.514;13.438;2023-04-08T02:01:04;101611.17;;;7.36;73.78
38452;BME280;24231;52.514;13.438;2023-04-08T02:03:32;101613.62;;;7.40;73.54
38452;BME280;24231;52.514;13.438;2023-04-08T02:06:00;101613.71;;;7.73;72.86
38452;BME280;24231;52.514;13.438;2023-04-08T02:08:28;101619.08;;;8.85;67.42
38452;BME280;24231;52.514;13.438;2023-04-08T02:10:55;101625.33;;;9.20;66.11
38452;BME280;24231;52.514;13.438;2023-04-08T02:13:22;101631.14;;;8.32;67.42
38452;BME280;24231;52.514;13.438;2023-04-08T02:15:53;101631.23;;;7.74;70.34
38452;BME280;24231;52.514;13.438;2023-04-08T02:18:25;101639.89;;;9.25;65.17
38452;BME280;24231;52.514;13.438;2023-04-08T02:20:56;101637.24;;;8.99;66.02
38452;BME280;24231;52.514;13.438;2023-04-08T02:23:26;101641.72;;;7.69;70.13
38452;BME280;24231;52.514;13.438;2023-04-08T02:25:55;101642.91;;;7.84;70.41
38452;BME280;24231;52.514;13.438;2023-04-08T02:28:22;101642.80;;;7.85;71.03
38452;BME280;24231;52.514;13.438;2023-04-08T02:30:53;101644.21;;;8.02;71.11
38452;BME280;24231;52.514;13.438;2023-04-08T02:33:22;101640.87;;;7.68;70.13
38452;BME280;24231;52.514;13.438;2023-04-08T02:35:49;101644.25;;;6.95;74.79
38452;BME280;24231;52.514;13.438;2023-04-08T02:38:17;101640.25;;;7.71;72.73
38452;BME280;24231;52.514;13.438;2023-04-08T02:40:44;101639.44;;;8.37;68.62
38452;BME280;24231;52.514;13.438;2023-04-08T02:43:11;101642.33;;;8.47;68.66
38452;BME280;24231;52.514;13.438;2023-04-08T02:45:41;101647.57;;;6.45;76.36
38452;BME280;24231;52.514;13.438;2023-04-08T02:48:09;101647.83;;;7.49;71.52
38452;BME280;24231;52.514;13.438;2023-04-08T02:50:36;101650.69;;;7.10;74.59
38452;BME280;24231;52.514;13.438;2023-04-08T02:53:03;101652.75;;;7.56;72.35
38452;BME280;24231;52.514;13.438;2023-04-08T02:55:30;101658.23;;;7.46;72.83
38452;BME280;24231;52.514;13.438;2023-04-08T02:57:57;101658.86;;;7.94;71.39
38452;BME280;24231;52.514;13.438;2023-04-08T03:00:24;101659.90;;;8.41;69.87
38452;BME280;24231;52.514;13.438;2023-04-08T03:02:51;101660.16;;;8.26;70.00
38452;BME280;24231;52.514;13.438;2023-04-08T03:05:19;101661.49;;;8.21;70.64
38452;BME280;24231;52.514;13.438;2023-04-08T03:07:46;101660.25;;;8.28;69.86
38452;BME280;24231;52.514;13.438;2023-04-08T03:10:14;101662.96;;;8.74;67.76
38452;BME280;24231;52.514;13.438;2023-04-08T03:12:43;101661.36;;;8.30;69.92
38452;BME280;24231;52.514;13.438;2023-04-08T03:15:10;101667.05;;;8.32;69.40
38452;BME280;24231;52.514;13.438;2023-04-08T03:17:37;101668.11;;;9.02;66.10
38452;BME280;24231;52.514;13.438;2023-04-08T03:20:06;101672.71;;;9.50;65.55
38452;BME280;24231;52.514;13.438;2023-04-08T03:22:35;101672.41;;;9.29;66.35
38452;BME280;24231;52.514;13.438;2023-04-08T03:25:03;101675.34;;;7.91;70.09
38452;BME280;24231;52.514;13.438;2023-04-08T03:27:30;101676.51;;;7.92;70.89
38452;BME280;24231;52.514;13.438;2023-04-08T03:29:58;101678.66;;;8.76;67.59
38452;BME280;24231;52.514;13.438;2023-04-08T03:32:25;101678.83;;;9.26;65.81
38452;BME280;24231;52.514;13.438;2023-04-08T03:34:52;101681.24;;;9.30;65.14
38452;BME280;24231;52.514;13.438;2023-04-08T03:37:19;101679.18;;;9.32;64.47
38452;BME280;24231;52.514;13.438;2023-04-08T03:39:46;101678.94;;;8.95;66.26
38452;BME280;24231;52.514;13.438;2023-04-08T03:42:13;101679.40;;;8.55;68.00
38452;BME280;24231;52.514;13.438;2023-04-08T03:44:40;101686.59;;;9.10;66.21
38452;BME280;24231;52.514;13.438;2023-04-08T03:47:07;101685.47;;;8.47;66.50
38452;BME280;24231;52.514;13.438;2023-04-08T03:49:35;101689.25;;;8.87;66.98
38452;BME280;24231;52.514;13.438;2023-04-08T03:52:02;101682.69;;;9.22;65.95
38452;BME280;24231;52.514;13.438;2023-04-08T03:54:29;101689.67;;;8.22;68.19
38452;BME280;24231;52.514;13.438;2023-04-08T03:56:56;101693.79;;;8.98;66.73
38452;BME280;24231;52.514;13.438;2023-04-08T03:59:23;101699.67;;;7.52;71.05
38452;BME280;24231;52.514;13.438;2023-04-08T04:01:50;101700.73;;;8.23;69.69
38452;BME280;24231;52.514;13.438;2023-04-08T04:04:17;101702.30;;;8.53;67.94
38452;BME280;24231;52.514;13.438;2023-04-08T04:06:45;101711.41;;;6.73;76.67
38452;BME280;24231;52.514;13.438;2023-04-08T04:09:11;101705.49;;;8.26;70.21
38452;BME280;24231;52.514;13.438;2023-04-08T04:11:39;101709.98;;;7.67;70.20
38452;BME280;24231;52.514;13.438;2023-04-08T04:14:06;101706.73;;;9.02;66.33
38452;BME280;24231;52.514;13.438;2023-04-08T04:16:33;101708.08;;;9.11;66.03
38452;BME280;24231;52.514;13.438;2023-04-08T04:19:01;101709.57;;;9.36;65.09
38452;BME280;24231;52.514;13.438;2023-04-08T04:21:28;101708.25;;;8.72;66.14
38452;BME280;24231;52.514;13.438;2023-04-08T04:23:55;101718.11;;;9.37;64.92
38452;BME280;24231;52.514;13.438;2023-04-08T04:26:22;101725.85;;;9.91;62.97
38452;BME280;24231;52.514;13.438;2023-04-08T04:28:49;101728.63;;;7.22;72.62
38452;BME280;24231;52.514;13.438;2023-04-08T04:31:18;101725.01;;;8.92;67.12
38452;BME280;24231;52.514;13.438;2023-04-08T04:33:46;101720.43;;;9.25;65.91
38452;BME280;24231;52.514;13.438;2023-04-08T04:36:13;101727.14;;;8.38;69.44
38452;BME280;24231;52.514;13.438;2023-04-08T04:38:40;101724.58;;;8.98;66.57
38452;BME280;24231;52.514;13.438;2023-04-08T04:41:08;101728.47;;;8.44;69.16
38452;BME280;24231;52.514;13.438;2023-04-08T04:43:35;101739.97;;;7.63;71.32
38452;BME280;24231;52.514;13.438;2023-04-08T04:46:03;101737.00;;;8.85;67.57
38452;BME280;24231;52.514;13.438;2023-04-08T04:48:30;101751.34;;;7.99;70.76
38452;BME280;24231;52.514;13.438;2023-04-08T04:50:58;101749.85;;;8.09;71.29
38452;BME280;24231;52.514;13.438;2023-04-08T04:53:26;101745.15;;;8.71;68.45
38452;BME280;24231;52.514;13.438;2023-04-08T04:55:53;101743.71;;;9.21;66.24
38452;BME280;24231;52.514;13.438;2023-04-08T04:58:20;101751.07;;;8.52;68.76
38452;BME280;24231;52.514;13.438;2023-04-08T05:00:47;101753.06;;;9.24;65.64
38452;BME280;24231;52.514;13.438;2023-04-08T05:03:15;101757.85;;;7.05;72.01
38452;BME280;24231;52.514;13.438;2023-04-08T05:05:42;101758.91;;;9.18;66.40
38452;BME280;24231;52.514;13.438;2023-04-08T05:08:09;101759.75;;;9.48;64.61
38452;BME280;24231;52.514;13.438;2023-04-08T05:10:38;101758.71;;;8.20;69.41
38452;BME280;24231;52.514;13.438;2023-04-08T05:13:06;101763.65;;;9.15;66.18
38452;BME280;24231;52.514;13.438;2023-04-08T05:15:33;101760.26;;;9.19;65.90
38452;BME280;24231;52.514;13.438;2023-04-08T05:18:00;101767.12;;;9.56;64.52
38452;BME280;24231;52.514;13.438;2023-04-08T05:20:27;101766.19;;;8.95;66.70
38452;BME280;24231;52.514;13.438;2023-04-08T05:22:55;101771.67;;;9.60;64.41
38452;BME280;24231;52.514;13.438;2023-04-08T05:25:22;101773.65;;;8.43;67.66
38452;BME280;24231;52.514;13.438;2023-04-08T05:27:49;101769.66;;;9.33;65.45
38452;BME280;24231;52.514;13.438;2023-04-08T05:30:16;101764.83;;;9.61;63.74
38452;BME280;24231;52.514;13.438;2023-04-08T05:32:44;101766.36;;;9.38;64.18
38452;BME280;24231;52.514;13.438;2023-04-08T05:35:11;101779.20;;;9.49;64.40
38452;BME280;24231;52.514;13.438;2023-04-08T05:37:39;101784.51;;;9.72;63.58
38452;BME280;24231;52.514;13.438;2023-04-08T05:40:06;101793.70;;;10.04;62.48
38452;BME280;24231;52.514;13.438;2023-04-08T05:42:34;101795.69;;;9.77;62.71
38452;BME280;24231;52.514;13.438;2023-04-08T05:45:02;101803.12;;;9.71;63.08
38452;BME280;24231;52.514;13.438;2023-04-08T05:47:29;101802.12;;;9.11;65.13
38452;BME280;24231;52.514;13.438;2023-04-08T05:49:56;101806.92;;;9.85;63.18
38452;BME280;24231;52.514;13.438;2023-04-08T05:52:24;101810.02;;;8.55;66.34
38452;BME280;24231;52.514;13.438;2023-04-08T05:54:51;101810.02;;;8.47;68.37
38452;BME280;24231;52.514;13.438;2023-04-08T05:57:18;101809.85;;;9.05;66.43
38452;BME280;24231;52.514;13.438;2023-04-08T05:59:45;101810.46;;;9.96;62.79
38452;BME280;24231;52.514;13.438;2023-04-08T06:02:12;101809.98;;;9.98;63.26
38452;BME280;24231;52.514;13.438;2023-04-08T06:04:39;101809.53;;;10.12;62.56
38452;BME280;24231;52.514;13.438;2023-04-08T06:07:06;101813.19;;;9.60;64.66
38452;BME280;24231;52.514;13.438;2023-04-08T06:09:34;101814.28;;;9.55;64.37
38452;BME280;24231;52.514;13.438;2023-04-08T06:12:01;101817.15;;;9.73;64.21
38452;BME280;24231;52.514;13.438;2023-04-08T06:14:28;101813.82;;;9.10;66.46
38452;BME280;24231;52.514;13.438;2023-04-08T06:16:55;101817.54;;;9.64;64.62
38452;BME280;24231;52.514;13.438;2023-04-08T06:19:22;101816.63;;;9.30;66.75
38452;BME280;24231;52.514;13.438;2023-04-08T06:21:49;101821.09;;;8.19;69.95
38452;BME280;24231;52.514;13.438;2023-04-08T06:24:16;101821.20;;;9.16;67.32
38452;BME280;24231;52.514;13.438;2023-04-08T06:26:44;101829.80;;;8.21;70.85
38452;BME280;24231;52.514;13.438;2023-04-08T06:29:10;101825.66;;;9.45;66.29
38452;BME280;24231;52.514;13.438;2023-04-08T06:31:38;101823.58;;;9.90;64.36
38452;BME280;24231;52.514;13.438;2023-04-08T06:34:05;101833.58;;;8.95;67.03
38452;BME280;24231;52.514;13.438;2023-04-08T06:36:32;101837.32;;;9.41;66.50
38452;BME280;24231;52.514;13.438;2023-04-08T06:38:59;101846.39;;;7.97;70.75
38452;BME280;24231;52.514;13.438;2023-04-08T06:41:26;101845.49;;;9.25;67.04
38452;BME280;24231;52.514;13.438;2023-04-08T06:43:53;101851.36;;;9.38;65.65
38452;BME280;24231;52.514;13.438;2023-04-08T06:46:20;101852.09;;;9.57;65.29
38452;BME280;24231;52.514;13.438;2023-04-08T06:48:48;101857.25;;;10.13;63.50
38452;BME280;24231;52.514;13.438;2023-04-08T06:51:15;101862.17;;;9.64;65.27
38452;BME280;24231;52.514;13.438;2023-04-08T06:53:42;101864.33;;;8.75;68.59
38452;BME280;24231;52.514;13.438;2023-04-08T06:56:09;101867.56;;;9.98;64.04
38452;BME280;24231;52.514;13.438;2023-04-08T06:58:36;101873.14;;;10.11;63.43
38452;BME280;24231;52.514;13.438;2023-04-08T07:01:02;101874.78;;;9.97;64.35
38452;BME280;24231;52.514;13.438;2023-04-08T07:03:29;101876.26;;;10.18;63.14
38452;BME280;24231;52.514;13.438;2023-04-08T07:05:56;101875.64;;;10.52;62.12
38452;BME280;24231;52.514;13.438;2023-04-08T07:08:24;101877.88;;;10.54;62.03
38452;BME280;24231;52.514;13.438;2023-04-08T07:10:51;101877.54;;;9.35;66.52
38452;BME280;24231;52.514;13.438;2023-04-08T07:13:18;101882.35;;;9.99;64.44
38452;BME280;24231;52.514;13.438;2023-04-08T07:15:45;101879.58;;;9.39;67.25
38452;BME280;24231;52.514;13.438;2023-04-08T07:18:12;101880.49;;;9.59;66.19
38452;BME280;24231;52.514;13.438;2023-04-08T07:20:39;101885.08;;;10.10;64.19
38452;BME280;24231;52.514;13.438;2023-04-08T07:23:06;101890.26;;;10.12;64.03
38452;BME280;24231;52.514;13.438;2023-04-08T07:25:34;101889.24;;;9.98;64.33
38452;BME280;24231;52.514;13.438;2023-04-08T07:28:01;101893.13;;;10.05;64.32
38452;BME280;24231;52.514;13.438;2023-04-08T07:30:29;101892.86;;;9.89;64.53
38452;BME280;24231;52.514;13.438;2023-04-08T07:32:55;101898.44;;;10.13;63.51
38452;BME280;24231;52.514;13.438;2023-04-08T07:35:23;101899.09;;;11.04;60.25
38452;BME280;24231;52.514;13.438;2023-04-08T07:37:50;101895.67;;;11.26;59.49
38452;BME280;24231;52.514;13.438;2023-04-08T07:40:18;101900.68;;;11.41;59.05
38452;BME280;24231;52.514;13.438;2023-04-08T07:42:45;101902.36;;;11.47;58.68
38452;BME280;24231;52.514;13.438;2023-04-08T07:45:13;101914.80;;;10.60;61.13
38452;BME280;24231;52.514;13.438;2023-04-08T07:47:40;101913.53;;;10.42;62.57
38452;BME280;24231;52.514;13.438;2023-04-08T07:50:07;101916.64;;;10.65;61.97
38452;BME280;24231;52.514;13.438;2023-04-08T07:52:34;101915.00;;;9.32;66.87
38452;BME280;24231;52.514;13.438;2023-04-08T07:55:01;101914.50;;;10.46;63.77
38452;BME280;24231;52.514;13.438;2023-04-08T07:57:28;101917.90;;;10.88;61.52
38452;BME280;24231;52.514;13.438;2023-04-08T07:59:56;101919.60;;;10.46;62.82
38452;BME280;24231;52.514;13.438;2023-04-08T08:02:23;101919.75;;;10.27;63.20
38452;BME280;24231;52.514;13.438;2023-04-08T08:04:51;101920.20;;;10.02;64.77
38452;BME280;24231;52.514;13.438;2023-04-08T08:07:18;101920.67;;;10.19;64.69
38452;BME280;24231;52.514;13.438;2023-04-08T08:09:45;101921.37;;;10.23;64.14
38452;BME280;24231;52.514;13.438;2023-04-08T08:12:12;101920.13;;;9.66;64.36
38452;BME280;24231;52.514;13.438;2023-04-08T08:14:39;101919.11;;;9.99;64.55
38452;BME280;24231;52.514;13.438;2023-04-08T08:17:07;101924.77;;;10.68;63.02
38452;BME280;24231;52.514;13.438;2023-04-08T08:19:34;101922.70;;;10.17;65.14
38452;BME280;24231;52.514;13.438;2023-04-08T08:22:01;101925.84;;;10.54;62.91
38452;BME280;24231;52.514;13.438;2023-04-08T08:24:28;101930.16;;;10.79;62.43
38452;BME280;24231;52.514;13.438;2023-04-08T08:26:55;101932.56;;;11.10;61.87
38452;BME280;24231;52.514;13.438;2023-04-08T08:29:22;101936.72;;;10.39;63.90
38452;BME280;24231;52.514;13.438;2023-04-08T08:31:50;101937.81;;;9.73;66.21
38452;BME280;24231;52.514;13.438;2023-04-08T08:34:17;101940.94;;;9.72;67.24
38452;BME280;24231;52.514;13.438;2023-04-08T08:36:45;101945.69;;;10.86;62.67
38452;BME280;24231;52.514;13.438;2023-04-08T08:39:12;101944.30;;;11.22;61.01
38452;BME280;24231;52.514;13.438;2023-04-08T08:41:39;101950.92;;;10.13;64.14
38452;BME280;24231;52.514;13.438;2023-04-08T08:44:07;101949.78;;;10.66;62.34
38452;BME280;24231;52.514;13.438;2023-04-08T08:46:36;101942.45;;;11.57;59.67
38452;BME280;24231;52.514;13.438;2023-04-08T08:49:03;101951.55;;;11.44;59.81
38452;BME280;24231;52.514;13.438;2023-04-08T08:51:30;101944.51;;;11.64;60.36
38452;BME280;24231;52.514;13.438;2023-04-08T08:54:01;101949.21;;;11.04;61.12
38452;BME280;24231;52.514;13.438;2023-04-08T08:56:28;101951.12;;;10.59;63.94
38452;BME280;24231;52.514;13.438;2023-04-08T08:58:55;101951.74;;;10.88;62.53
38452;BME280;24231;52.514;13.438;2023-04-08T09:01:30;101953.32;;;10.01;65.26
38452;BME280;24231;52.514;13.438;2023-04-08T09:04:14;101957.15;;;10.97;62.23
38452;BME280;24231;52.514;13.438;2023-04-08T09:06:42;101958.70;;;10.13;64.33
38452;BME280;24231;52.514;13.438;2023-04-08T09:09:10;101964.02;;;10.02;65.91
38452;BME280;24231;52.514;13.438;2023-04-08T09:11:38;101967.07;;;10.51;63.79
38452;BME280;24231;52.514;13.438;2023-04-08T09:14:17;101967.53;;;10.31;66.09
38452;BME280;24231;52.514;13.438;2023-04-08T09:16:44;101975.45;;;9.82;66.39
38452;BME280;24231;52.514;13.438;2023-04-08T09:19:11;101976.56;;;10.55;64.24
38452;BME280;24231;52.514;13.438;2023-04-08T09:21:39;101980.16;;;10.56;63.84
38452;BME280;24231;52.514;13.438;2023-04-08T09:24:07;101984.23;;;9.92;66.26
38452;BME280;24231;52.514;13.438;2023-04-08T09:26:35;101988.25;;;9.82;67.26
38452;BME280;24231;52.514;13.438;2023-04-08T09:29:04;101986.71;;;10.27;65.25
38452;BME280;24231;52.514;13.438;2023-04-08T09:31:32;101992.33;;;9.98;65.94
38452;BME280;24231;52.514;13.438;2023-04-08T09:34:08;101992.60;;;10.05;65.98
38452;BME280;24231;52.514;13.438;2023-04-08T09:36:36;102001.12;;;9.67;67.17
38452;BME280;24231;52.514;13.438;2023-04-08T09:39:03;102000.84;;;9.19;69.14
38452;BME280;24231;52.514;13.438;2023-04-08T09:41:33;102004.43;;;8.64;71.74
38452;BME280;24231;52.514;13.438;2023-04-08T09:44:02;101999.04;;;8.74;71.95
38452;BME280;24231;52.514;13.438;2023-04-08T09:46:32;102000.15;;;9.73;68.15
38452;BME280;24231;52.514;13.438;2023-04-08T09:49:05;102006.10;;;9.23;70.02
38452;BME280;24231;52.514;13.438;2023-04-08T09:51:39;101997.72;;;11.13;62.89
38452;BME280;24231;52.514;13.438;2023-04-08T09:54:12;102000.20;;;11.48;61.35
38452;BME280;24231;52.514;13.438;2023-04-08T09:56:43;101996.21;;;12.31;57.68
38452;BME280;24231;52.514;13.438;2023-04-08T09:59:14;101997.16;;;12.45;57.04
38452;BME280;24231;52.514;13.438;2023-04-08T10:01:46;102001.76;;;11.52;59.72
38452;BME280;24231;52.514;13.438;2023-04-08T10:04:18;101999.67;;;11.24;61.02
38452;BME280;24231;52.514;13.438;2023-04-08T10:06:49;102004.65;;;11.37;60.08
38452;BME280;24231;52.514;13.438;2023-04-08T10:09:18;102005.03;;;11.53;59.72
38452;BME280;24231;52.514;13.438;2023-04-08T10:11:45;102001.82;;;11.72;59.02
38452;BME280;24231;52.514;13.438;2023-04-08T10:14:12;101999.94;;;12.00;58.14
38452;BME280;24231;52.514;13.438;2023-04-08T10:16:39;101999.94;;;11.94;57.97
38452;BME280;24231;52.514;13.438;2023-04-08T10:19:36;101996.01;;;12.36;55.74
38452;BME280;24231;52.514;13.438;2023-04-08T10:22:04;101998.10;;;12.90;53.99
38452;BME280;24231;52.514;13.438;2023-04-08T10:25:44;102003.44;;;9.91;64.48
38452;BME280;24231;52.514;13.438;2023-04-08T10:28:23;101996.90;;;12.18;57.08
38452;BME280;24231;52.514;13.438;2023-04-08T10:30:52;101998.88;;;12.22;55.44
38452;BME280;24231;52.514;13.438;2023-04-08T10:33:22;101995.30;;;12.44;54.61
38452;BME280;24231;52.514;13.438;2023-04-08T10:35:53;101998.73;;;11.63;57.19
38452;BME280;24231;52.514;13.438;2023-04-08T10:38:20;101996.97;;;12.78;53.65
38452;BME280;24231;52.514;13.438;2023-04-08T10:40:48;101999.62;;;11.83;56.43
38452;BME280;24231;52.514;13.438;2023-04-08T10:43:16;101993.22;;;12.34;55.14
38452;BME280;24231;52.514;13.438;2023-04-08T10:45:43;102004.21;;;9.51;62.84
38452;BME280;24231;52.514;13.438;2023-04-08T10:48:12;102002.42;;;10.16;61.55
38452;BME280;24231;52.514;13.438;2023-04-08T10:50:39;102004.09;;;9.69;62.70
38452;BME280;24231;52.514;13.438;2023-04-08T10:53:07;102008.37;;;9.33;64.06
38452;BME280;24231;52.514;13.438;2023-04-08T10:55:34;102001.89;;;10.45;61.06
38452;BME280;24231;52.514;13.438;2023-04-08T10:58:05;102004.50;;;8.83;66.12
38452;BME280;24231;52.514;13.438;2023-04-08T11:00:34;102001.64;;;9.73;63.03
38452;BME280;24231;52.514;13.438;2023-04-08T11:03:02;101997.93;;;10.06;61.77
38452;BME280;24231;52.514;13.438;2023-04-08T11:05:30;102006.71;;;10.87;59.02
38452;BME280;24231;52.514;13.438;2023-04-08T11:07:57;102002.83;;;11.43;57.06
38452;BME280;24231;52.514;13.438;2023-04-08T11:10:25;102002.40;;;10.91;57.30
38452;BME280;24231;52.514;13.438;2023-04-08T11:12:53;102004.72;;;11.91;54.64
38452;BME280;24231;52.514;13.438;2023-04-08T11:15:20;102006.84;;;10.62;58.32
38452;BME280;24231;52.514;13.438;2023-04-08T11:17:48;102016.24;;;10.33;59.13
38452;BME280;24231;52.514;13.438;2023-04-08T11:20:15;102011.84;;;10.59;59.56
38452;BME280;24231;52.514;13.438;2023-04-08T11:22:43;102008.60;;;10.52;60.40
38452;BME280;24231;52.514;13.438;2023-04-08T11:25:10;102013.72;;;10.86;58.63
38452;BME280;24231;52.514;13.438;2023-04-08T11:27:38;102013.34;;;11.44;56.11
38452;BME280;24231;52.514;13.438;2023-04-08T11:30:07;102010.80;;;9.72;61.78
38452;BME280;24231;52.514;13.438;2023-04-08T11:32:35;102007.33;;;11.22;55.80
38452;BME280;24231;52.514;13.438;2023-04-08T11:35:05;102012.56;;;9.87;60.93
38452;BME280;24231;52.514;13.438;2023-04-08T11:37:37;102013.79;;;10.92;57.74
38452;BME280;24231;52.514;13.438;2023-04-08T11:40:09;102008.07;;;12.01;54.50
38452;BME280;24231;52.514;13.438;2023-04-08T11:42:37;102012.74;;;10.34;58.66
38452;BME280;24231;52.514;13.438;2023-04-08T11:45:09;102009.80;;;11.77;54.36
38452;BME280;24231;52.514;13.438;2023-04-08T11:47:36;102017.71;;;10.54;56.88
38452;BME280;24231;52.514;13.438;2023-04-08T11:50:05;102016.83;;;9.66;60.99
38452;BME280;24231;52.514;13.438;2023-04-08T11:52:42;102012.60;;;8.81;65.38
38452;BME280;24231;52.514;13.438;2023-04-08T11:55:10;102016.12;;;9.07;63.88
38452;BME280;24231;52.514;13.438;2023-04-08T11:57:37;102016.58;;;8.68;65.90
38452;BME280;24231;52.514;13.438;2023-04-08T12:00:05;102009.19;;;8.88;66.04
38452;BME280;24231;52.514;13.438;2023-04-08T12:02:32;102011.04;;;8.94;65.47
38452;BME280;24231;52.514;13.438;2023-04-08T12:04:59;102004.05;;;10.53;59.25
38452;BME280;24231;52.514;13.438;2023-04-08T12:07:27;102006.69;;;10.60;59.21
38452;BME280;24231;52.514;13.438;2023-04-08T12:09:54;102004.62;;;11.18;56.56
38452;BME280;24231;52.514;13.438;2023-04-08T12:12:21;101998.99;;;12.21;52.83
38452;BME280;24231;52.514;13.438;2023-04-08T12:14:48;102000.07;;;13.06;49.74
38452;BME280;24231;52.514;13.438;2023-04-08T12:17:15;101995.86;;;13.66;47.91
38452;BME280;24231;52.514;13.438;2023-04-08T12:19:43;101999.81;;;12.10;51.41
38452;BME280;24231;52.514;13.438;2023-04-08T12:22:10;102008.18;;;11.45;54.02
38452;BME280;24231;52.514;13.438;2023-04-08T12:24:38;102008.13;;;10.88;54.84
38452;BME280;24231;52.514;13.438;2023-04-08T12:27:05;102018.50;;;10.21;56.96
38452;BME280;24231;52.514;13.438;2023-04-08T12:29:31;102013.29;;;9.26;60.19
38452;BME280;24231;52.514;13.438;2023-04-08T12:31:58;102016.59;;;9.22;60.97
38452;BME280;24231;52.514;13.438;2023-04-08T12:34:25;102015.61;;;9.05;61.14
38452;BME280;24231;52.514;13.438;2023-04-08T12:36:52;102006.96;;;10.04;57.78
38452;BME280;24231;52.514;13.438;2023-04-08T12:39:20;102007.79;;;10.57;54.65
38452;BME280;24231;52.514;13.438;2023-04-08T12:41:47;102003.11;;;10.57;54.95
38452;BME280;24231;52.514;13.438;2023-04-08T12:44:14;101999.88;;;11.84;51.19
38452;BME280;24231;52.514;13.438;2023-04-08T12:46:42;102002.09;;;10.61;52.36
38452;BME280;24231;52.514;13.438;2023-04-08T12:49:09;102007.81;;;9.57;53.70
38452;BME280;24231;52.514;13.438;2023-04-08T12:51:36;101996.14;;;10.51;51.75
38452;BME280;24231;52.514;13.438;2023-04-08T12:54:04;102010.91;;;9.62;52.46